createdAt,value
2018-01-28T00:01:07.440Z,99.90
2018-01-28T00:03:35.345Z,99.90
2018-01-28T00:06:03.269Z,99.90
2018-01-28T00:08:31.348Z,99.90
2018-01-28T00:10:59.282Z,99.90
2018-01-28T00:13:27.342Z,99.90
2018-01-28T00:15:55.531Z,99.90
2018-01-28T00:18:23.582Z,99.90
2018-01-28T00:20:51.521Z,99.90
2018-01-28T00:23:20.307Z,99.90
2018-01-28T00:25:48.283Z,99.90
2018-01-28T00:28:16.944Z,99.90
2018-01-28T00:30:45.004Z,99.90
2018-01-28T00:33:12.952Z,99.90
2018-01-28T00:35:41.040Z,99.90
2018-01-28T00:38:09.119Z,99.90
2018-01-28T00:40:37.049Z,99.90
2018-01-28T00:43:05.881Z,99.90
2018-01-28T00:45:34.518Z,99.90
2018-01-28T00:48:03.224Z,99.90
2018-01-28T00:50:31.562Z,99.90
2018-01-28T00:53:00.148Z,99.90
2018-01-28T00:55:28.487Z,99.90
2018-01-28T00:57:58.213Z,99.90
2018-01-28T01:00:26.872Z,99.90
2018-01-28T01:15:43.552Z,99.90
2018-01-28T01:18:11.498Z,99.90
2018-01-28T01:20:40.253Z,99.90
2018-01-28T01:23:08.305Z,99.90
2018-01-28T01:25:36.355Z,99.90
2018-01-28T01:28:04.286Z,99.90
2018-01-28T01:30:32.357Z,99.90
2018-01-28T01:33:00.316Z,99.90
2018-01-28T01:35:28.241Z,99.90
2018-01-28T01:37:56.460Z,99.90
2018-01-28T01:40:24.442Z,99.90
2018-01-28T01:42:52.367Z,99.90
2018-01-28T01:45:21.254Z,99.90
2018-01-28T01:47:49.173Z,99.90
2018-01-28T01:50:17.105Z,99.90
2018-01-28T01:52:45.161Z,99.90
2018-01-28T01:55:13.093Z,99.90
2018-01-28T01:57:41.080Z,99.90
2018-01-28T02:00:09.290Z,99.90
2018-01-28T02:02:37.204Z,99.90
2018-01-28T02:05:05.246Z,99.90
2018-01-28T02:07:33.309Z,99.90
2018-01-28T02:10:01.395Z,99.90
2018-01-28T02:12:29.352Z,99.90
2018-01-28T02:14:57.406Z,99.90
2018-01-28T02:17:25.421Z,99.90
2018-01-28T02:19:53.479Z,99.90
2018-01-28T02:22:21.574Z,99.90
2018-01-28T02:24:49.532Z,99.90
2018-01-28T02:27:17.516Z,99.90
2018-01-28T02:29:45.714Z,99.90
2018-01-28T02:32:14.618Z,99.90
2018-01-28T02:34:43.316Z,99.90
2018-01-28T02:37:11.463Z,99.90
2018-01-28T02:39:39.552Z,99.90
2018-01-28T02:42:07.599Z,99.90
2018-01-28T02:44:35.675Z,99.90
2018-01-28T02:47:03.728Z,99.90
2018-01-28T02:49:31.654Z,99.90
2018-01-28T02:51:59.803Z,99.90
2018-01-28T02:54:28.481Z,99.90
2018-01-28T02:56:56.521Z,99.90
2018-01-28T02:59:25.774Z,99.90
2018-01-28T03:01:53.932Z,99.90
2018-01-28T03:04:21.878Z,99.90
2018-01-28T03:06:49.945Z,99.90
2018-01-28T03:09:17.898Z,99.90
2018-01-28T03:11:45.857Z,99.90
2018-01-28T03:14:13.918Z,99.90
2018-01-28T03:16:41.928Z,99.90
2018-01-28T03:19:09.867Z,99.90
2018-01-28T03:21:37.924Z,99.90
2018-01-28T03:24:06.628Z,99.90
2018-01-28T03:26:34.571Z,99.90
2018-01-28T03:29:03.388Z,99.90
2018-01-28T03:31:31.490Z,99.90
2018-01-28T03:33:59.569Z,99.90
2018-01-28T03:36:27.752Z,99.90
2018-01-28T03:38:55.801Z,99.90
2018-01-28T03:41:24.012Z,99.90
2018-01-28T03:43:52.049Z,99.90
2018-01-28T03:46:20.028Z,99.90
2018-01-28T03:48:48.236Z,99.90
2018-01-28T03:51:16.304Z,99.90
2018-01-28T03:53:44.233Z,99.90
2018-01-28T03:56:12.149Z,99.90
2018-01-28T03:58:40.213Z,99.90
2018-01-28T04:01:08.174Z,99.90
2018-01-28T04:03:36.118Z,99.90
2018-01-28T04:06:04.321Z,99.90
2018-01-28T04:08:32.291Z,99.90
2018-01-28T04:11:00.263Z,99.90
2018-01-28T04:13:28.335Z,99.90
2018-01-28T04:15:56.283Z,99.90
2018-01-28T04:18:24.256Z,99.90
2018-01-28T04:20:52.312Z,99.90
2018-01-28T04:23:20.242Z,99.90
2018-01-28T04:25:48.963Z,99.90
2018-01-28T04:28:17.001Z,99.90
2018-01-28T04:30:45.703Z,99.90
2018-01-28T04:33:14.401Z,99.90
2018-01-28T04:35:42.545Z,99.90
2018-01-28T04:38:11.228Z,99.90
2018-01-28T04:40:39.149Z,99.90
2018-01-28T04:43:07.333Z,99.90
2018-01-28T04:45:35.299Z,99.90
2018-01-28T04:48:03.258Z,99.90
2018-01-28T04:50:31.464Z,99.90
2018-01-28T04:52:59.391Z,99.90
2018-01-28T04:55:27.408Z,99.90
2018-01-28T04:57:55.593Z,99.90
2018-01-28T05:00:23.677Z,99.90
2018-01-28T05:02:51.745Z,99.90
2018-01-28T05:05:19.934Z,99.90
2018-01-28T05:07:47.973Z,99.90
2018-01-28T05:10:16.052Z,99.90
2018-01-28T05:12:44.253Z,99.90
2018-01-28T05:15:12.177Z,99.90
2018-01-28T05:17:40.140Z,99.90
2018-01-28T05:20:08.336Z,99.90
2018-01-28T05:22:36.421Z,99.90
2018-01-28T05:25:04.282Z,99.90
2018-01-28T05:27:32.572Z,99.90
2018-01-28T05:30:00.494Z,99.90
2018-01-28T05:32:28.457Z,99.90
2018-01-28T05:34:56.560Z,99.90
2018-01-28T05:37:24.513Z,99.90
2018-01-28T05:39:52.459Z,99.90
2018-01-28T05:42:21.332Z,99.90
2018-01-28T05:44:49.405Z,99.90
2018-01-28T05:47:18.157Z,99.90
2018-01-28T05:49:46.223Z,99.90
2018-01-28T05:52:14.164Z,99.90
2018-01-28T05:54:42.086Z,99.70
2018-01-28T05:57:10.369Z,99.50
2018-01-28T05:59:38.328Z,98.80
2018-01-28T06:02:06.884Z,98.50
2018-01-28T06:04:34.943Z,99.90
2018-01-28T06:07:02.865Z,99.90
2018-01-28T06:09:30.781Z,99.90
2018-01-28T06:11:58.853Z,99.90
2018-01-28T06:14:26.855Z,99.90
2018-01-28T06:16:54.813Z,99.90
2018-01-28T06:19:22.874Z,99.90
2018-01-28T06:21:50.805Z,99.70
2018-01-28T06:24:19.485Z,98.80
2018-01-28T06:26:47.800Z,98.80
2018-01-28T06:29:15.832Z,99.80
2018-01-28T06:31:43.783Z,99.10
2018-01-28T06:34:11.854Z,98.10
2018-01-28T06:36:39.824Z,98.40
2018-01-28T06:39:07.776Z,97.80
2018-01-28T06:41:35.836Z,96.80
2018-01-28T06:44:03.784Z,96.70
2018-01-28T06:46:32.615Z,97.10
2018-01-28T06:49:00.670Z,97.10
2018-01-28T06:51:28.614Z,96.70
2018-01-28T06:53:57.274Z,96.30
2018-01-28T06:56:25.461Z,96.30
2018-01-28T06:58:53.427Z,96.10
2018-01-28T07:01:21.371Z,96.80
2018-01-28T07:03:49.417Z,96.70
2018-01-28T07:06:17.425Z,97.20
2018-01-28T07:08:45.370Z,97.60
2018-01-28T07:11:13.445Z,97.10
2018-01-28T07:13:41.411Z,96.70
2018-01-28T07:16:09.369Z,96.60
2018-01-28T07:31:37.699Z,96.80
2018-01-28T07:34:05.784Z,96.80
2018-01-28T07:36:34.529Z,97.70
2018-01-28T07:39:02.608Z,97.70
2018-01-28T07:41:30.777Z,97.60
2018-01-28T07:43:58.686Z,98.10
2018-01-28T07:46:27.592Z,99.70
2018-01-28T07:48:55.707Z,99.70
2018-01-28T07:51:23.647Z,99.90
2018-01-28T07:53:51.841Z,99.90
2018-01-28T07:56:19.825Z,99.90
2018-01-28T07:58:47.823Z,99.90
2018-01-28T08:01:15.891Z,99.90
2018-01-28T08:03:43.909Z,99.90
2018-01-28T08:06:11.944Z,99.90
2018-01-28T08:08:49.862Z,99.90
2018-01-28T08:11:34.209Z,99.90
2018-01-28T08:14:17.778Z,99.90
2018-01-28T08:16:45.935Z,99.90
2018-01-28T08:19:14.751Z,99.90
2018-01-28T08:21:42.968Z,99.90
2018-01-28T08:24:11.041Z,99.90
2018-01-28T08:26:40.886Z,99.90
2018-01-28T08:29:10.903Z,99.90
2018-01-28T08:31:39.561Z,99.90
2018-01-28T08:34:07.622Z,99.90
2018-01-28T08:36:35.828Z,99.90
2018-01-28T08:39:04.915Z,99.90
2018-01-28T08:41:32.850Z,99.90
2018-01-28T08:44:00.918Z,99.90
2018-01-28T08:46:28.894Z,99.90
2018-01-28T08:48:57.003Z,99.90
2018-01-28T08:51:25.050Z,99.90
2018-01-28T08:53:53.255Z,99.90
2018-01-28T08:56:21.189Z,99.90
2018-01-28T08:58:49.257Z,99.90
2018-01-28T09:01:17.224Z,99.90
2018-01-28T09:03:45.164Z,99.90
2018-01-28T09:06:13.244Z,99.90
2018-01-28T09:08:41.178Z,99.90
2018-01-28T09:11:09.159Z,99.90
2018-01-28T09:13:37.990Z,99.90
2018-01-28T09:16:05.933Z,99.90
2018-01-28T09:18:34.606Z,99.90
2018-01-28T09:21:03.474Z,99.90
2018-01-28T09:23:31.384Z,99.90
2018-01-28T09:25:59.481Z,99.90
2018-01-28T09:28:27.550Z,99.90
2018-01-28T09:30:55.512Z,99.90
2018-01-28T09:33:23.415Z,99.90
2018-01-28T09:35:51.487Z,99.90
2018-01-28T09:38:19.421Z,99.90
2018-01-28T09:40:47.405Z,99.90
2018-01-28T09:43:15.484Z,99.90
2018-01-28T09:45:43.417Z,99.90
2018-01-28T09:48:12.052Z,99.90
2018-01-28T09:50:40.268Z,99.90
2018-01-28T09:53:08.934Z,99.90
2018-01-28T09:55:36.853Z,99.90
2018-01-28T09:58:05.018Z,99.90
2018-01-28T10:00:32.943Z,99.90
2018-01-28T10:03:00.908Z,99.90
2018-01-28T10:05:28.954Z,99.90
2018-01-28T10:07:56.926Z,99.90
2018-01-28T10:10:24.858Z,99.90
2018-01-28T10:12:53.650Z,99.90
2018-01-28T10:15:22.317Z,99.90
2018-01-28T10:17:50.283Z,99.90
2018-01-28T10:20:18.395Z,99.90
2018-01-28T10:22:46.343Z,99.90
2018-01-28T10:25:15.694Z,99.90
2018-01-28T10:27:43.765Z,99.90
2018-01-28T10:30:11.691Z,99.90
2018-01-28T10:32:40.324Z,99.90
2018-01-28T10:35:08.344Z,99.90
2018-01-28T10:37:37.047Z,99.90
2018-01-28T10:40:05.691Z,99.90
2018-01-28T10:42:33.729Z,99.90
2018-01-28T10:45:01.704Z,99.90
2018-01-28T10:47:29.753Z,99.90
2018-01-28T10:49:57.861Z,99.90
2018-01-28T10:52:25.940Z,99.90
2018-01-28T10:54:53.882Z,99.90
2018-01-28T10:57:21.965Z,99.90
2018-01-28T10:59:49.850Z,99.90
2018-01-28T11:02:17.770Z,99.90
2018-01-28T11:04:46.577Z,99.90
2018-01-28T11:07:14.584Z,99.90
2018-01-28T11:09:42.506Z,99.90
2018-01-28T11:12:11.356Z,99.90
2018-01-28T11:14:39.253Z,99.90
2018-01-28T11:17:08.008Z,99.90
2018-01-28T11:19:36.045Z,99.90
2018-01-28T11:22:04.097Z,99.90
2018-01-28T11:24:32.904Z,99.90
2018-01-28T11:27:01.014Z,99.90
2018-01-28T11:29:28.920Z,99.90
2018-01-28T11:31:57.593Z,99.90
2018-01-28T11:34:25.679Z,99.90
2018-01-28T11:36:54.436Z,99.90
2018-01-28T11:39:22.470Z,99.90
2018-01-28T11:41:50.555Z,99.90
2018-01-28T11:44:18.491Z,99.90
2018-01-28T11:46:47.252Z,99.90
2018-01-28T11:49:15.305Z,99.90
2018-01-28T11:51:43.256Z,99.90
2018-01-28T11:54:11.327Z,99.90
2018-01-28T11:56:39.472Z,99.90
2018-01-28T11:59:08.162Z,99.90
2018-01-28T12:01:36.814Z,99.90
2018-01-28T12:04:05.597Z,99.90
2018-01-28T12:06:33.736Z,99.90
2018-01-28T12:09:01.683Z,99.90
2018-01-28T12:11:31.538Z,99.90
2018-01-28T12:14:00.229Z,99.90
2018-01-28T12:16:28.586Z,99.90
2018-01-28T12:18:57.032Z,99.90
2018-01-28T12:21:25.877Z,99.90
2018-01-28T12:23:54.251Z,99.90
2018-01-28T12:26:22.931Z,99.90
2018-01-28T12:28:50.876Z,99.90
2018-01-28T12:31:18.927Z,99.90
2018-01-28T12:33:48.303Z,99.90
2018-01-28T12:36:17.514Z,99.90
2018-01-28T12:38:46.176Z,99.90
2018-01-28T12:41:14.874Z,99.90
2018-01-28T12:43:46.641Z,99.90
2018-01-28T12:46:15.277Z,99.90
2018-01-28T12:48:43.242Z,99.90
2018-01-28T12:51:11.932Z,99.90
2018-01-28T12:53:39.982Z,99.90
2018-01-28T12:56:09.043Z,99.90
2018-01-28T12:58:37.303Z,99.90
2018-01-28T13:01:05.954Z,99.90
2018-01-28T13:03:37.135Z,99.90
2018-01-28T13:06:05.688Z,99.90
2018-01-28T13:08:34.833Z,99.90
2018-01-28T13:11:02.925Z,99.90
2018-01-28T13:13:32.293Z,99.90
2018-01-28T13:16:03.177Z,99.90
2018-01-28T13:18:31.706Z,99.90
2018-01-28T13:20:59.794Z,99.90
2018-01-28T13:23:28.409Z,99.90
2018-01-28T13:25:56.845Z,99.90
2018-01-28T13:28:25.078Z,99.90
2018-01-28T13:31:00.702Z,99.90
2018-01-28T13:33:28.861Z,99.90
2018-01-28T13:35:56.792Z,99.90
2018-01-28T13:38:26.381Z,99.90
2018-01-28T13:40:55.085Z,99.90
2018-01-28T13:43:23.776Z,99.90
2018-01-28T13:45:52.591Z,99.90
2018-01-28T13:48:21.232Z,99.90
2018-01-28T13:50:50.301Z,99.90
2018-01-28T13:53:18.787Z,99.90
2018-01-28T13:55:46.931Z,99.90
2018-01-28T13:58:15.924Z,99.90
2018-01-28T14:00:44.151Z,99.90
2018-01-28T14:03:12.107Z,99.90
2018-01-28T14:05:40.450Z,99.90
2018-01-28T14:08:08.917Z,99.90
2018-01-28T14:10:36.846Z,99.90
2018-01-28T14:13:05.534Z,99.90
2018-01-28T14:15:35.043Z,99.90
2018-01-28T14:18:03.249Z,99.90
2018-01-28T14:20:31.220Z,99.90
2018-01-28T14:23:00.732Z,99.90
2018-01-28T14:25:29.081Z,99.90
2018-01-28T14:27:58.706Z,99.90
2018-01-28T14:30:29.697Z,99.90
2018-01-28T14:32:58.234Z,99.90
2018-01-28T14:35:27.348Z,99.90
2018-01-28T14:37:55.461Z,99.90
2018-01-28T14:40:24.747Z,99.90
2018-01-28T14:42:54.237Z,99.90
2018-01-28T14:45:22.457Z,99.90
2018-01-28T14:47:50.416Z,99.90
2018-01-28T14:50:19.536Z,99.90
2018-01-28T14:52:48.203Z,99.90
2018-01-28T14:55:17.150Z,99.90
2018-01-28T14:57:45.441Z,99.90
2018-01-28T15:00:14.231Z,99.90
2018-01-28T15:02:42.328Z,99.90
2018-01-28T15:05:10.574Z,99.90
2018-01-28T15:07:39.082Z,99.90
2018-01-28T15:10:07.016Z,99.90
2018-01-28T15:12:35.556Z,99.90
2018-01-28T15:15:04.236Z,99.90
2018-01-28T15:17:32.880Z,99.90
2018-01-28T15:20:01.314Z,99.90
2018-01-28T15:22:30.526Z,99.90
2018-01-28T15:25:00.407Z,99.90
2018-01-28T15:27:28.832Z,99.90
2018-01-28T15:29:57.518Z,99.90
2018-01-28T15:32:26.186Z,99.90
2018-01-28T15:34:54.641Z,99.90
2018-01-28T15:37:23.178Z,99.90
2018-01-28T15:39:52.451Z,99.90
2018-01-28T15:42:21.248Z,99.90
2018-01-28T15:44:49.337Z,99.90
2018-01-28T15:47:18.073Z,99.90
2018-01-28T15:49:46.132Z,99.90
2018-01-28T15:52:14.489Z,99.90
2018-01-28T15:54:42.476Z,99.90
2018-01-28T15:57:11.533Z,99.90
2018-01-28T15:59:39.872Z,99.90
2018-01-28T16:02:09.459Z,99.90
2018-01-28T16:04:37.814Z,99.90
2018-01-28T16:07:05.968Z,99.90
2018-01-28T16:09:34.363Z,99.90
2018-01-28T16:12:03.752Z,99.90
2018-01-28T16:14:33.339Z,99.90
2018-01-28T16:17:02.865Z,99.90
2018-01-28T16:19:31.477Z,99.90
2018-01-28T16:22:00.165Z,99.90
2018-01-28T16:24:28.117Z,99.90
2018-01-28T16:26:57.007Z,99.90
2018-01-28T16:29:28.036Z,99.90
2018-01-28T16:31:56.025Z,99.90
2018-01-28T16:34:24.104Z,99.90
2018-01-28T16:36:52.869Z,99.90
2018-01-28T16:39:20.822Z,99.90
2018-01-28T16:41:48.890Z,99.90
2018-01-28T16:44:16.924Z,99.90
2018-01-28T16:46:44.861Z,99.90
2018-01-28T16:49:12.925Z,99.90
2018-01-28T16:51:40.853Z,99.90
2018-01-28T16:54:08.778Z,99.90
2018-01-28T16:56:37.076Z,99.90
2018-01-28T16:59:05.812Z,99.90
2018-01-28T17:01:33.779Z,99.90
2018-01-28T17:04:01.999Z,99.90
2018-01-28T17:06:30.804Z,99.90
2018-01-28T17:08:59.504Z,99.90
2018-01-28T17:11:27.642Z,99.90
2018-01-28T17:13:56.447Z,99.90
2018-01-28T17:16:25.133Z,99.90
2018-01-28T17:18:54.010Z,99.90
2018-01-28T17:21:21.937Z,99.90
2018-01-28T17:23:49.876Z,99.90
2018-01-28T17:26:18.006Z,99.90
2018-01-28T17:28:45.915Z,99.90
2018-01-28T17:31:14.602Z,99.90
2018-01-28T17:33:43.436Z,99.90
2018-01-28T17:36:11.368Z,99.90
2018-01-28T17:38:39.306Z,99.90
2018-01-28T17:41:07.558Z,99.90
2018-01-28T17:43:35.621Z,99.90
2018-01-28T17:46:03.702Z,99.90
2018-01-28T17:48:31.772Z,99.90
2018-01-28T17:50:59.733Z,99.90
2018-01-28T17:53:27.707Z,99.90
2018-01-28T17:55:55.771Z,99.90
2018-01-28T17:58:23.736Z,99.90
2018-01-28T18:00:51.741Z,99.90
2018-01-28T18:03:19.808Z,99.90
2018-01-28T18:05:47.889Z,99.90
2018-01-28T18:08:15.811Z,99.90
2018-01-28T18:10:43.865Z,99.90
2018-01-28T18:13:12.820Z,99.90
2018-01-28T18:15:40.787Z,99.90
2018-01-28T18:18:08.852Z,99.90
2018-01-28T18:20:36.803Z,99.90
2018-01-28T18:23:04.776Z,99.90
2018-01-28T18:25:32.850Z,99.90
2018-01-28T18:28:00.775Z,99.90
2018-01-28T18:30:29.492Z,99.90
2018-01-28T18:32:57.588Z,99.90
2018-01-28T18:35:25.526Z,99.90
2018-01-28T18:37:53.464Z,99.90
2018-01-28T18:40:21.531Z,99.90
2018-01-28T18:42:49.496Z,99.90
2018-01-28T18:45:17.456Z,99.90
2018-01-28T18:47:45.511Z,99.90
2018-01-28T18:50:13.460Z,99.90
2018-01-28T18:52:42.159Z,99.90
2018-01-28T18:55:10.241Z,99.90
2018-01-28T18:57:38.164Z,99.90
2018-01-28T19:00:06.864Z,99.90
2018-01-28T19:02:35.682Z,99.90
2018-01-28T19:05:03.654Z,99.90
2018-01-28T19:07:31.748Z,99.90
2018-01-28T19:09:59.987Z,99.90
2018-01-28T19:12:27.940Z,99.90
2018-01-28T19:14:56.644Z,99.90
2018-01-28T19:17:24.793Z,99.90
2018-01-28T19:19:53.468Z,99.90
2018-01-28T19:22:21.408Z,99.90
2018-01-28T19:24:49.495Z,99.90
2018-01-28T19:27:17.554Z,99.90
2018-01-28T19:29:45.614Z,99.90
2018-01-28T19:32:13.671Z,99.90
2018-01-28T19:34:41.751Z,99.90
2018-01-28T19:37:09.747Z,99.90
2018-01-28T19:39:37.823Z,99.90
2018-01-28T19:42:05.805Z,99.90
2018-01-28T19:44:33.729Z,99.90
2018-01-28T19:47:01.846Z,99.90
2018-01-28T19:49:29.808Z,99.90
2018-01-28T19:51:57.732Z,99.90
2018-01-28T19:54:25.826Z,99.90
2018-01-28T19:56:53.733Z,99.90
2018-01-28T19:59:21.688Z,99.90
2018-01-28T20:01:49.753Z,99.90
2018-01-28T20:04:17.676Z,99.90
2018-01-28T20:06:45.657Z,99.90
2018-01-28T20:09:13.880Z,99.90
2018-01-28T20:11:41.818Z,99.90
2018-01-28T20:14:09.762Z,99.90
2018-01-28T20:16:38.611Z,99.90
2018-01-28T20:19:06.553Z,99.90
2018-01-28T20:21:34.512Z,99.90
2018-01-28T20:24:02.565Z,99.90
2018-01-28T20:26:31.304Z,99.90
2018-01-28T20:28:59.392Z,99.90
2018-01-28T20:31:27.464Z,99.90
2018-01-28T20:33:55.408Z,99.90
2018-01-28T20:36:23.355Z,99.90
2018-01-28T20:38:51.500Z,99.90
2018-01-28T20:41:20.196Z,99.90
2018-01-28T20:43:48.875Z,99.90
2018-01-28T20:46:17.746Z,99.90
2018-01-28T20:48:45.691Z,99.90
2018-01-28T20:51:13.620Z,99.90
2018-01-28T20:53:42.424Z,99.90
2018-01-28T20:56:10.468Z,99.90
2018-01-28T20:58:39.121Z,99.90
2018-01-28T21:01:07.165Z,99.90
2018-01-28T21:03:35.303Z,99.90
2018-01-28T21:06:04.016Z,99.90
2018-01-28T21:08:32.055Z,99.90
2018-01-28T21:11:00.131Z,99.90
2018-01-28T21:13:28.835Z,99.90
2018-01-28T21:15:57.638Z,99.90
2018-01-28T21:18:25.600Z,99.90
2018-01-28T21:20:54.274Z,99.90
2018-01-28T21:23:23.074Z,99.90
2018-01-28T21:25:51.775Z,99.90
2018-01-28T21:28:19.700Z,99.90
2018-01-28T21:30:47.771Z,99.90
2018-01-28T21:33:15.745Z,99.90
2018-01-28T21:35:43.662Z,99.90
2018-01-28T21:38:11.694Z,99.90
2018-01-28T21:40:40.383Z,99.90
2018-01-28T21:43:09.072Z,99.90
2018-01-28T21:45:37.980Z,99.90
2018-01-28T21:48:06.767Z,99.90
2018-01-28T21:50:34.712Z,99.90
2018-01-28T21:53:02.789Z,99.90
2018-01-28T21:55:30.726Z,99.90
2018-01-28T21:57:58.687Z,99.90
2018-01-28T22:00:26.734Z,99.90
2018-01-28T22:02:54.668Z,99.90
2018-01-28T22:05:22.617Z,99.90
2018-01-28T22:07:50.823Z,99.90
2018-01-28T22:10:19.639Z,99.90
2018-01-28T22:12:47.733Z,99.90
2018-01-28T22:15:15.933Z,99.90
2018-01-28T22:17:43.943Z,99.90
2018-01-28T22:20:12.644Z,99.90
2018-01-28T22:22:40.717Z,99.90
2018-01-28T22:25:08.666Z,99.90
2018-01-28T22:27:37.395Z,99.90
2018-01-28T22:30:05.475Z,99.90
2018-01-28T22:32:33.408Z,99.90
2018-01-28T22:35:02.126Z,99.90
2018-01-28T22:37:30.190Z,99.90
2018-01-28T22:39:58.160Z,99.90
2018-01-28T22:42:26.079Z,99.90
2018-01-28T22:44:54.265Z,99.90
2018-01-28T22:47:23.025Z,99.90
2018-01-28T22:49:50.997Z,99.90
2018-01-28T22:52:19.059Z,99.90
2018-01-28T22:54:46.999Z,99.90
2018-01-28T22:57:15.017Z,99.90
2018-01-28T22:59:43.084Z,99.90
2018-01-28T23:02:11.062Z,99.90
2018-01-28T23:04:39.010Z,99.90
2018-01-28T23:07:07.122Z,99.90
2018-01-28T23:09:35.074Z,99.90
2018-01-28T23:12:03.030Z,99.90
2018-01-28T23:14:31.248Z,99.90
2018-01-28T23:17:00.007Z,99.90
2018-01-28T23:19:27.947Z,99.90
2018-01-28T23:21:56.077Z,99.90
2018-01-28T23:24:24.779Z,99.90
2018-01-28T23:26:53.514Z,99.90
2018-01-28T23:29:21.563Z,99.90
2018-01-28T23:31:49.505Z,99.90
2018-01-28T23:34:18.179Z,99.90
2018-01-28T23:36:46.436Z,99.90
2018-01-28T23:39:14.524Z,99.90
2018-01-28T23:41:42.508Z,99.90
2018-01-28T23:44:11.340Z,99.90
2018-01-28T23:46:39.357Z,99.90
2018-01-28T23:49:07.330Z,99.90
2018-01-28T23:51:35.449Z,99.90
2018-01-28T23:54:03.406Z,99.90
2018-01-28T23:56:31.352Z,99.90
2018-01-28T23:59:00.162Z,99.90
